sensor_id;sensor_type;location;lat;lon;timestamp;pressure;altitude;pressure_sealevel;temperature;humidity
9419;BME280;4748;50.802;7.132;2023-05-09T00:00:36;101159.03;;;16.19;100.00
9419;BME280;4748;50.802;7.132;2023-05-09T00:03:02;101158.22;;;16.18;100.00
9419;BME280;4748;50.802;7.132;2023-05-09T00:05:30;101159.34;;;16.06;100.00
9419;BME280;4748;50.802;7.132;2023-05-09T00:07:55;101152.88;;;16.07;100.00
9419;BME280;4748;50.802;7.132;2023-05-09T00:10:20;101150.44;;;16.05;100.00
9419;BME280;4748;50.802;7.132;2023-05-09T00:12:46;101145.84;;;16.06;100.00
9419;BME280;4748;50.802;7.132;2023-05-09T00:15:16;101147.72;;;16.05;100.00
9419;BME280;4748;50.802;7.132;2023-05-09T00:17:42;101149.63;;;16.05;100.00
9419;BME280;4748;50.802;7.132;2023-05-09T00:20:10;101143.63;;;16.03;100.00
9419;BME280;4748;50.802;7.132;2023-05-09T00:22:36;101144.28;;;15.93;100.00
9419;BME280;4748;50.802;7.132;2023-05-09T00:25:02;101131.91;;;15.97;100.00
9419;BME280;4748;50.802;7.132;2023-05-09T00:27:28;101118.88;;;15.94;100.00
9419;BME280;4748;50.802;7.132;2023-05-09T00:29:55;101123.13;;;15.90;100.00
9419;BME280;4748;50.802;7.132;2023-05-09T00:32:20;101116.09;;;15.89;100.00
9419;BME280;4748;50.802;7.132;2023-05-09T00:34:46;101117.97;;;15.89;100.00
9419;BME280;4748;50.802;7.132;2023-05-09T00:37:12;101118.03;;;15.78;100.00
9419;BME280;4748;50.802;7.132;2023-05-09T00:39:37;101119.78;;;15.83;100.00
9419;BME280;4748;50.802;7.132;2023-05-09T00:42:03;101122.38;;;15.79;100.00
9419;BME280;4748;50.802;7.132;2023-05-09T00:44:30;101119.53;;;15.85;100.00
9419;BME280;4748;50.802;7.132;2023-05-09T00:46:55;101116.34;;;15.88;100.00
9419;BME280;4748;50.802;7.132;2023-05-09T00:49:21;101114.47;;;15.88;100.00
9419;BME280;4748;50.802;7.132;2023-05-09T00:51:46;101106.59;;;15.87;100.00
9419;BME280;4748;50.802;7.132;2023-05-09T00:54:12;101101.19;;;15.87;100.00
9419;BME280;4748;50.802;7.132;2023-05-09T00:56:38;101091.13;;;15.82;100.00
9419;BME280;4748;50.802;7.132;2023-05-09T00:59:03;101091.13;;;15.82;100.00
9419;BME280;4748;50.802;7.132;2023-05-09T01:01:29;101086.28;;;15.84;100.00
9419;BME280;4748;50.802;7.132;2023-05-09T01:03:55;101092.00;;;15.72;100.00
9419;BME280;4748;50.802;7.132;2023-05-09T01:09:17;101087.63;;;15.82;100.00
9419;BME280;4748;50.802;7.132;2023-05-09T01:11:59;101087.84;;;15.81;100.00
9419;BME280;4748;50.802;7.132;2023-05-09T01:14:43;101095.94;;;15.81;100.00
9419;BME280;4748;50.802;7.132;2023-05-09T01:17:25;101084.09;;;15.82;100.00
9419;BME280;4748;50.802;7.132;2023-05-09T01:20:13;101086.78;;;15.82;100.00
9419;BME280;4748;50.802;7.132;2023-05-09T01:22:47;101092.28;;;15.86;100.00
9419;BME280;4748;50.802;7.132;2023-05-09T01:31:17;101074.50;;;15.90;100.00
9419;BME280;4748;50.802;7.132;2023-05-09T01:33:45;101070.03;;;15.96;100.00
9419;BME280;4748;50.802;7.132;2023-05-09T01:36:31;101061.66;;;15.97;100.00
9419;BME280;4748;50.802;7.132;2023-05-09T01:38:58;101062.25;;;15.99;100.00
9419;BME280;4748;50.802;7.132;2023-05-09T01:41:24;101068.41;;;15.95;100.00
9419;BME280;4748;50.802;7.132;2023-05-09T01:43:55;101068.47;;;16.00;100.00
9419;BME280;4748;50.802;7.132;2023-05-09T01:46:24;101061.44;;;15.99;100.00
9419;BME280;4748;50.802;7.132;2023-05-09T01:48:51;101063.88;;;16.00;100.00
9419;BME280;4748;50.802;7.132;2023-05-09T01:51:18;101058.56;;;16.05;100.00
9419;BME280;4748;50.802;7.132;2023-05-09T01:53:47;101055.63;;;16.07;100.00
9419;BME280;4748;50.802;7.132;2023-05-09T01:56:13;101062.94;;;16.06;100.00
9419;BME280;4748;50.802;7.132;2023-05-09T01:58:39;101060.78;;;16.08;100.00
9419;BME280;4748;50.802;7.132;2023-05-09T02:01:05;101059.47;;;16.11;100.00
9419;BME280;4748;50.802;7.132;2023-05-09T02:03:31;101058.56;;;16.05;100.00
9419;BME280;4748;50.802;7.132;2023-05-09T02:05:59;101059.56;;;15.99;100.00
9419;BME280;4748;50.802;7.132;2023-05-09T02:08:26;101043.59;;;15.98;100.00
9419;BME280;4748;50.802;7.132;2023-05-09T02:10:52;101050.94;;;15.86;100.00
9419;BME280;4748;50.802;7.132;2023-05-09T02:13:17;101054.66;;;15.96;100.00
9419;BME280;4748;50.802;7.132;2023-05-09T02:15:43;101056.28;;;15.97;100.00
9419;BME280;4748;50.802;7.132;2023-05-09T02:18:09;101048.25;;;16.02;100.00
9419;BME280;4748;50.802;7.132;2023-05-09T02:20:35;101057.53;;;16.06;100.00
9419;BME280;4748;50.802;7.132;2023-05-09T02:23:02;101054.47;;;16.03;100.00
9419;BME280;4748;50.802;7.132;2023-05-09T02:25:30;101055.53;;;16.02;100.00
9419;BME280;4748;50.802;7.132;2023-05-09T02:27:56;101047.22;;;16.03;100.00
9419;BME280;4748;50.802;7.132;2023-05-09T02:30:23;101049.19;;;16.08;100.00
9419;BME280;4748;50.802;7.132;2023-05-09T02:33:01;101043.84;;;16.13;100.00
9419;BME280;4748;50.802;7.132;2023-05-09T02:35:27;101051.28;;;16.06;100.00
9419;BME280;4748;50.802;7.132;2023-05-09T02:37:53;101038.69;;;16.11;100.00
9419;BME280;4748;50.802;7.132;2023-05-09T02:40:21;101040.88;;;16.14;100.00
9419;BME280;4748;50.802;7.132;2023-05-09T02:42:46;101042.75;;;15.97;100.00
9419;BME280;4748;50.802;7.132;2023-05-09T02:45:12;101038.13;;;16.09;100.00
9419;BME280;4748;50.802;7.132;2023-05-09T02:47:38;101029.53;;;16.12;100.00
9419;BME280;4748;50.802;7.132;2023-05-09T02:50:04;101031.31;;;16.07;100.00
9419;BME280;4748;50.802;7.132;2023-05-09T02:52:29;101022.91;;;16.03;100.00
9419;BME280;4748;50.802;7.132;2023-05-09T02:54:55;101029.44;;;16.07;100.00
9419;BME280;4748;50.802;7.132;2023-05-09T02:57:21;101027.56;;;16.08;100.00
9419;BME280;4748;50.802;7.132;2023-05-09T02:59:46;101025.34;;;16.05;100.00
9419;BME280;4748;50.802;7.132;2023-05-09T03:02:11;101024.44;;;15.99;100.00
9419;BME280;4748;50.802;7.132;2023-05-09T03:04:37;101013.41;;;16.01;100.00
9419;BME280;4748;50.802;7.132;2023-05-09T03:07:03;101015.50;;;15.99;100.00
9419;BME280;4748;50.802;7.132;2023-05-09T03:09:29;101018.31;;;16.04;100.00
9419;BME280;4748;50.802;7.132;2023-05-09T03:11:59;101015.69;;;15.92;100.00
9419;BME280;4748;50.802;7.132;2023-05-09T03:14:24;101007.34;;;15.94;100.00
9419;BME280;4748;50.802;7.132;2023-05-09T03:16:50;101005.94;;;15.91;100.00
9419;BME280;4748;50.802;7.132;2023-05-09T03:19:15;101001.44;;;15.97;100.00
9419;BME280;4748;50.802;7.132;2023-05-09T03:21:41;101001.13;;;15.93;100.00
9419;BME280;4748;50.802;7.132;2023-05-09T03:24:10;100997.94;;;15.96;100.00
9419;BME280;4748;50.802;7.132;2023-05-09T03:26:37;100998.25;;;16.00;100.00
9419;BME280;4748;50.802;7.132;2023-05-09T03:29:02;100994.50;;;16.01;100.00
9419;BME280;4748;50.802;7.132;2023-05-09T03:31:28;100996.28;;;15.95;100.00
9419;BME280;4748;50.802;7.132;2023-05-09T03:33:54;101000.69;;;16.01;100.00
9419;BME280;4748;50.802;7.132;2023-05-09T03:36:19;101001.84;;;16.05;100.00
9419;BME280;4748;50.802;7.132;2023-05-09T03:38:45;101003.25;;;16.08;100.00
9419;BME280;4748;50.802;7.132;2023-05-09T03:41:12;101000.44;;;16.03;100.00
9419;BME280;4748;50.802;7.132;2023-05-09T03:43:38;101002.34;;;16.02;100.00
9419;BME280;4748;50.802;7.132;2023-05-09T03:46:03;100989.41;;;16.04;100.00
9419;BME280;4748;50.802;7.132;2023-05-09T03:48:28;100987.28;;;16.06;100.00
9419;BME280;4748;50.802;7.132;2023-05-09T03:50:54;100988.00;;;16.02;100.00
9419;BME280;4748;50.802;7.132;2023-05-09T03:53:19;100984.25;;;16.03;100.00
9419;BME280;4748;50.802;7.132;2023-05-09T03:55:45;100974.84;;;16.05;100.00
9419;BME280;4748;50.802;7.132;2023-05-09T03:58:11;100977.63;;;15.94;100.00
9419;BME280;4748;50.802;7.132;2023-05-09T04:00:36;100974.28;;;16.03;100.00
9419;BME280;4748;50.802;7.132;2023-05-09T04:03:04;100975.09;;;16.04;100.00
9419;BME280;4748;50.802;7.132;2023-05-09T04:05:29;100977.78;;;16.04;100.00
9419;BME280;4748;50.802;7.132;2023-05-09T04:07:55;100978.09;;;16.07;100.00
9419;BME280;4748;50.802;7.132;2023-05-09T04:10:22;100982.75;;;16.12;100.00
9419;BME280;4748;50.802;7.132;2023-05-09T04:12:49;100970.88;;;16.13;100.00
9419;BME280;4748;50.802;7.132;2023-05-09T04:15:14;100978.19;;;16.12;100.00
9419;BME280;4748;50.802;7.132;2023-05-09T04:17:40;100976.53;;;16.11;100.00
9419;BME280;4748;50.802;7.132;2023-05-09T04:20:06;100966.22;;;16.08;100.00
9419;BME280;4748;50.802;7.132;2023-05-09T04:22:32;100972.78;;;16.12;100.00
9419;BME280;4748;50.802;7.132;2023-05-09T04:24:58;100963.53;;;16.08;100.00
9419;BME280;4748;50.802;7.132;2023-05-09T04:27:24;100960.78;;;16.03;100.00
9419;BME280;4748;50.802;7.132;2023-05-09T04:29:51;100965.19;;;16.09;100.00
9419;BME280;4748;50.802;7.132;2023-05-09T04:32:17;100959.53;;;16.11;100.00
9419;BME280;4748;50.802;7.132;2023-05-09T04:34:45;100966.31;;;16.13;100.00
9419;BME280;4748;50.802;7.132;2023-05-09T04:37:10;100956.13;;;16.20;100.00
9419;BME280;4748;50.802;7.132;2023-05-09T04:39:37;100959.94;;;16.19;100.00
9419;BME280;4748;50.802;7.132;2023-05-09T04:42:03;100960.97;;;16.18;100.00
9419;BME280;4748;50.802;7.132;2023-05-09T04:44:28;100959.34;;;16.17;100.00
9419;BME280;4748;50.802;7.132;2023-05-09T04:46:54;100953.31;;;16.27;100.00
9419;BME280;4748;50.802;7.132;2023-05-09T04:49:19;100960.41;;;16.33;100.00
9419;BME280;4748;50.802;7.132;2023-05-09T04:51:45;100961.25;;;16.33;100.00
9419;BME280;4748;50.802;7.132;2023-05-09T04:54:10;100948.16;;;16.25;100.00
9419;BME280;4748;50.802;7.132;2023-05-09T04:56:36;100938.78;;;16.33;100.00
9419;BME280;4748;50.802;7.132;2023-05-09T04:59:01;100943.63;;;16.31;100.00
9419;BME280;4748;50.802;7.132;2023-05-09T05:01:28;100940.47;;;16.38;100.00
9419;BME280;4748;50.802;7.132;2023-05-09T05:03:53;100936.47;;;16.41;100.00
9419;BME280;4748;50.802;7.132;2023-05-09T05:06:19;100940.38;;;16.50;100.00
9419;BME280;4748;50.802;7.132;2023-05-09T05:08:45;100939.84;;;16.53;100.00
9419;BME280;4748;50.802;7.132;2023-05-09T05:11:10;100941.00;;;16.57;100.00
9419;BME280;4748;50.802;7.132;2023-05-09T05:13:35;100938.38;;;16.62;100.00
9419;BME280;4748;50.802;7.132;2023-05-09T05:16:01;100942.75;;;16.68;100.00
9419;BME280;4748;50.802;7.132;2023-05-09T05:18:26;100930.56;;;16.65;100.00
9419;BME280;4748;50.802;7.132;2023-05-09T05:20:51;100937.97;;;16.75;100.00
9419;BME280;4748;50.802;7.132;2023-05-09T05:23:16;100941.63;;;16.85;100.00
9419;BME280;4748;50.802;7.132;2023-05-09T05:25:42;100940.59;;;16.91;100.00
9419;BME280;4748;50.802;7.132;2023-05-09T05:28:07;100930.66;;;16.96;100.00
9419;BME280;4748;50.802;7.132;2023-05-09T05:30:33;100935.38;;;17.06;100.00
9419;BME280;4748;50.802;7.132;2023-05-09T05:32:58;100936.44;;;17.05;100.00
9419;BME280;4748;50.802;7.132;2023-05-09T05:35:23;100930.34;;;17.19;100.00
9419;BME280;4748;50.802;7.132;2023-05-09T05:37:49;100935.28;;;17.22;100.00
9419;BME280;4748;50.802;7.132;2023-05-09T05:40:15;100932.25;;;17.19;100.00
9419;BME280;4748;50.802;7.132;2023-05-09T05:42:40;100929.59;;;17.24;100.00
9419;BME280;4748;50.802;7.132;2023-05-09T05:45:07;100922.41;;;17.34;100.00
9419;BME280;4748;50.802;7.132;2023-05-09T05:47:34;100922.19;;;17.40;100.00
9419;BME280;4748;50.802;7.132;2023-05-09T05:50:00;100923.41;;;17.54;100.00
9419;BME280;4748;50.802;7.132;2023-05-09T05:52:26;100921.28;;;17.61;100.00
9419;BME280;4748;50.802;7.132;2023-05-09T05:54:52;100925.03;;;17.55;100.00
9419;BME280;4748;50.802;7.132;2023-05-09T05:57:18;100925.41;;;17.69;100.00
9419;BME280;4748;50.802;7.132;2023-05-09T05:59:43;100926.31;;;17.79;100.00
9419;BME280;4748;50.802;7.132;2023-05-09T06:02:08;100920.41;;;17.87;100.00
9419;BME280;4748;50.802;7.132;2023-05-09T06:04:33;100923.72;;;17.94;100.00
9419;BME280;4748;50.802;7.132;2023-05-09T06:06:59;100922.34;;;17.91;100.00
9419;BME280;4748;50.802;7.132;2023-05-09T06:09:24;100909.69;;;18.02;100.00
9419;BME280;4748;50.802;7.132;2023-05-09T06:11:50;100915.13;;;18.07;100.00
9419;BME280;4748;50.802;7.132;2023-05-09T06:14:15;100916.84;;;18.18;100.00
9419;BME280;4748;50.802;7.132;2023-05-09T06:16:40;100910.28;;;18.09;100.00
9419;BME280;4748;50.802;7.132;2023-05-09T06:19:06;100909.00;;;18.21;100.00
9419;BME280;4748;50.802;7.132;2023-05-09T06:21:31;100906.88;;;18.28;100.00
9419;BME280;4748;50.802;7.132;2023-05-09T06:23:58;100911.00;;;18.36;100.00
9419;BME280;4748;50.802;7.132;2023-05-09T06:26:23;100910.69;;;18.32;100.00
9419;BME280;4748;50.802;7.132;2023-05-09T06:28:48;100907.44;;;18.35;100.00
9419;BME280;4748;50.802;7.132;2023-05-09T06:31:14;100902.03;;;18.30;100.00
9419;BME280;4748;50.802;7.132;2023-05-09T06:33:40;100909.63;;;18.38;100.00
9419;BME280;4748;50.802;7.132;2023-05-09T06:36:05;100899.03;;;18.32;100.00
9419;BME280;4748;50.802;7.132;2023-05-09T06:38:32;100909.16;;;18.51;100.00
9419;BME280;4748;50.802;7.132;2023-05-09T06:40:58;100895.63;;;18.56;100.00
9419;BME280;4748;50.802;7.132;2023-05-09T06:43:23;100905.97;;;18.69;100.00
9419;BME280;4748;50.802;7.132;2023-05-09T06:45:49;100897.84;;;18.74;100.00
9419;BME280;4748;50.802;7.132;2023-05-09T06:48:14;100898.72;;;18.94;100.00
9419;BME280;4748;50.802;7.132;2023-05-09T06:50:39;100903.41;;;19.08;100.00
9419;BME280;4748;50.802;7.132;2023-05-09T06:53:05;100904.25;;;19.53;100.00
9419;BME280;4748;50.802;7.132;2023-05-09T06:55:30;100906.41;;;19.61;100.00
9419;BME280;4748;50.802;7.132;2023-05-09T06:57:55;100909.97;;;19.72;100.00
9419;BME280;4748;50.802;7.132;2023-05-09T07:00:21;100907.78;;;19.69;100.00
9419;BME280;4748;50.802;7.132;2023-05-09T07:02:47;100908.31;;;19.66;100.00
9419;BME280;4748;50.802;7.132;2023-05-09T07:05:12;100898.28;;;19.66;100.00
9419;BME280;4748;50.802;7.132;2023-05-09T07:07:38;100899.91;;;19.57;100.00
9419;BME280;4748;50.802;7.132;2023-05-09T07:10:03;100899.38;;;19.70;100.00
9419;BME280;4748;50.802;7.132;2023-05-09T07:12:32;100883.84;;;19.81;100.00
9419;BME280;4748;50.802;7.132;2023-05-09T07:14:58;100882.16;;;20.19;100.00
9419;BME280;4748;50.802;7.132;2023-05-09T07:17:24;100880.56;;;20.18;100.00
9419;BME280;4748;50.802;7.132;2023-05-09T07:19:49;100876.94;;;20.43;100.00
9419;BME280;4748;50.802;7.132;2023-05-09T07:22:15;100876.84;;;20.57;100.00
9419;BME280;4748;50.802;7.132;2023-05-09T07:24:40;100878.16;;;20.65;100.00
9419;BME280;4748;50.802;7.132;2023-05-09T07:27:06;100874.91;;;20.63;100.00
9419;BME280;4748;50.802;7.132;2023-05-09T07:29:31;100873.00;;;20.68;100.00
9419;BME280;4748;50.802;7.132;2023-05-09T07:31:56;100868.03;;;20.80;100.00
9419;BME280;4748;50.802;7.132;2023-05-09T07:34:22;100866.09;;;20.86;100.00
9419;BME280;4748;50.802;7.132;2023-05-09T07:36:49;100867.19;;;20.85;100.00
9419;BME280;4748;50.802;7.132;2023-05-09T07:39:14;100868.88;;;20.76;100.00
9419;BME280;4748;50.802;7.132;2023-05-09T07:41:41;100872.06;;;20.88;100.00
9419;BME280;4748;50.802;7.132;2023-05-09T07:44:06;100866.69;;;20.83;100.00
9419;BME280;4748;50.802;7.132;2023-05-09T07:46:34;100869.28;;;21.02;100.00
9419;BME280;4748;50.802;7.132;2023-05-09T07:48:59;100870.19;;;21.26;100.00
9419;BME280;4748;50.802;7.132;2023-05-09T07:51:24;100866.75;;;21.44;100.00
9419;BME280;4748;50.802;7.132;2023-05-09T07:53:50;100861.81;;;21.56;100.00
9419;BME280;4748;50.802;7.132;2023-05-09T07:56:15;100860.41;;;21.58;100.00
9419;BME280;4748;50.802;7.132;2023-05-09T07:58:41;100856.50;;;21.36;100.00
9419;BME280;4748;50.802;7.132;2023-05-09T08:01:06;100858.53;;;21.54;100.00
9419;BME280;4748;50.802;7.132;2023-05-09T08:03:31;100853.13;;;21.44;100.00
9419;BME280;4748;50.802;7.132;2023-05-09T08:05:56;100854.44;;;21.56;100.00
9419;BME280;4748;50.802;7.132;2023-05-09T08:08:22;100847.19;;;21.37;100.00
9419;BME280;4748;50.802;7.132;2023-05-09T08:10:48;100844.63;;;21.55;100.00
9419;BME280;4748;50.802;7.132;2023-05-09T08:13:14;100852.50;;;21.57;100.00
9419;BME280;4748;50.802;7.132;2023-05-09T08:15:39;100833.97;;;21.59;100.00
9419;BME280;4748;50.802;7.132;2023-05-09T08:18:05;100833.09;;;21.63;100.00
9419;BME280;4748;50.802;7.132;2023-05-09T08:20:30;100825.31;;;21.52;100.00
9419;BME280;4748;50.802;7.132;2023-05-09T08:22:56;100817.75;;;21.72;100.00
9419;BME280;4748;50.802;7.132;2023-05-09T08:25:21;100822.13;;;21.68;100.00
9419;BME280;4748;50.802;7.132;2023-05-09T08:27:48;100809.44;;;21.59;100.00
9419;BME280;4748;50.802;7.132;2023-05-09T08:30:13;100811.03;;;21.60;100.00
9419;BME280;4748;50.802;7.132;2023-05-09T08:32:39;100804.66;;;21.41;100.00
9419;BME280;4748;50.802;7.132;2023-05-09T08:35:04;100806.09;;;21.34;100.00
9419;BME280;4748;50.802;7.132;2023-05-09T08:37:31;100802.88;;;21.27;100.00
9419;BME280;4748;50.802;7.132;2023-05-09T08:39:56;100807.06;;;21.19;100.00
9419;BME280;4748;50.802;7.132;2023-05-09T08:42:22;100799.47;;;21.11;100.00
9419;BME280;4748;50.802;7.132;2023-05-09T08:44:50;100793.53;;;21.38;100.00
9419;BME280;4748;50.802;7.132;2023-05-09T08:47:16;100794.53;;;21.47;100.00
9419;BME280;4748;50.802;7.132;2023-05-09T08:49:42;100791.16;;;21.59;100.00
9419;BME280;4748;50.802;7.132;2023-05-09T08:52:08;100782.66;;;21.66;100.00
9419;BME280;4748;50.802;7.132;2023-05-09T08:54:37;100777.09;;;21.76;100.00
9419;BME280;4748;50.802;7.132;2023-05-09T08:57:03;100778.53;;;21.92;100.00
9419;BME280;4748;50.802;7.132;2023-05-09T08:59:29;100783.06;;;22.01;100.00
9419;BME280;4748;50.802;7.132;2023-05-09T09:01:56;100771.00;;;22.07;100.00
9419;BME280;4748;50.802;7.132;2023-05-09T09:04:21;100775.50;;;22.16;100.00
9419;BME280;4748;50.802;7.132;2023-05-09T09:06:47;100767.47;;;22.48;100.00
9419;BME280;4748;50.802;7.132;2023-05-09T09:09:13;100761.56;;;22.41;100.00
9419;BME280;4748;50.802;7.132;2023-05-09T09:11:41;100756.25;;;22.68;100.00
9419;BME280;4748;50.802;7.132;2023-05-09T09:14:11;100753.34;;;22.78;100.00
9419;BME280;4748;50.802;7.132;2023-05-09T09:16:39;100747.38;;;22.76;100.00
9419;BME280;4748;50.802;7.132;2023-05-09T09:19:10;100742.94;;;22.98;100.00
9419;BME280;4748;50.802;7.132;2023-05-09T09:21:36;100742.94;;;22.80;100.00
9419;BME280;4748;50.802;7.132;2023-05-09T09:24:02;100739.56;;;22.69;100.00
9419;BME280;4748;50.802;7.132;2023-05-09T09:26:29;100737.63;;;22.52;100.00
9419;BME280;4748;50.802;7.132;2023-05-09T09:28:56;100736.06;;;22.82;100.00
9419;BME280;4748;50.802;7.132;2023-05-09T09:31:23;100731.84;;;22.90;100.00
9419;BME280;4748;50.802;7.132;2023-05-09T09:33:49;100729.72;;;23.05;100.00
9419;BME280;4748;50.802;7.132;2023-05-09T09:36:15;100725.03;;;23.06;100.00
9419;BME280;4748;50.802;7.132;2023-05-09T09:38:41;100727.69;;;23.10;100.00
9419;BME280;4748;50.802;7.132;2023-05-09T09:41:08;100728.31;;;23.08;100.00
9419;BME280;4748;50.802;7.132;2023-05-09T09:43:35;100720.06;;;23.26;100.00
9419;BME280;4748;50.802;7.132;2023-05-09T09:46:04;100713.25;;;23.23;100.00
9419;BME280;4748;50.802;7.132;2023-05-09T09:48:31;100717.94;;;23.36;100.00
9419;BME280;4748;50.802;7.132;2023-05-09T09:51:02;100707.53;;;23.65;100.00
9419;BME280;4748;50.802;7.132;2023-05-09T09:53:28;100703.59;;;23.71;100.00
9419;BME280;4748;50.802;7.132;2023-05-09T09:55:55;100706.81;;;23.59;100.00
9419;BME280;4748;50.802;7.132;2023-05-09T09:58:20;100698.53;;;23.78;100.00
9419;BME280;4748;50.802;7.132;2023-05-09T10:01:11;100697.72;;;23.77;100.00
9419;BME280;4748;50.802;7.132;2023-05-09T10:03:45;100700.56;;;23.86;100.00
9419;BME280;4748;50.802;7.132;2023-05-09T10:06:15;100677.03;;;23.85;100.00
9419;BME280;4748;50.802;7.132;2023-05-09T10:08:43;100681.19;;;23.96;100.00
9419;BME280;4748;50.802;7.132;2023-05-09T10:11:11;100682.47;;;24.25;100.00
9419;BME280;4748;50.802;7.132;2023-05-09T10:13:38;100676.16;;;24.24;100.00
9419;BME280;4748;50.802;7.132;2023-05-09T10:16:04;100676.66;;;24.40;100.00
9419;BME280;4748;50.802;7.132;2023-05-09T10:18:33;100672.09;;;24.22;100.00
9419;BME280;4748;50.802;7.132;2023-05-09T10:20:58;100669.50;;;24.17;100.00
9419;BME280;4748;50.802;7.132;2023-05-09T10:23:29;100673.09;;;24.26;100.00
9419;BME280;4748;50.802;7.132;2023-05-09T10:28:38;100651.81;;;24.58;100.00
9419;BME280;4748;50.802;7.132;2023-05-09T10:31:46;100651.66;;;24.55;100.00
9419;BME280;4748;50.802;7.132;2023-05-09T10:34:09;100648.84;;;24.33;100.00
9419;BME280;4748;50.802;7.132;2023-05-09T10:36:34;100649.19;;;24.53;100.00
9419;BME280;4748;50.802;7.132;2023-05-09T10:39:00;100649.53;;;24.73;100.00
9419;BME280;4748;50.802;7.132;2023-05-09T10:41:26;100642.63;;;24.84;100.00
9419;BME280;4748;50.802;7.132;2023-05-09T10:43:54;100639.06;;;24.54;100.00
9419;BME280;4748;50.802;7.132;2023-05-09T10:46:22;100631.28;;;24.69;100.00
9419;BME280;4748;50.802;7.132;2023-05-09T10:48:48;100629.25;;;24.83;100.00
9419;BME280;4748;50.802;7.132;2023-05-09T10:51:14;100611.19;;;25.04;100.00
9419;BME280;4748;50.802;7.132;2023-05-09T10:53:46;100613.06;;;24.95;100.00
9419;BME280;4748;50.802;7.132;2023-05-09T10:56:28;100606.22;;;24.84;100.00
9419;BME280;4748;50.802;7.132;2023-05-09T10:58:54;100596.28;;;24.96;100.00
9419;BME280;4748;50.802;7.132;2023-05-09T11:01:31;100600.72;;;24.54;100.00
9419;BME280;4748;50.802;7.132;2023-05-09T11:04:00;100597.38;;;24.35;100.00
9419;BME280;4748;50.802;7.132;2023-05-09T11:06:45;100588.41;;;24.43;100.00
9419;BME280;4748;50.802;7.132;2023-05-09T11:12:14;100579.28;;;24.34;100.00
9419;BME280;4748;50.802;7.132;2023-05-09T11:14:44;100572.44;;;24.23;100.00
9419;BME280;4748;50.802;7.132;2023-05-09T11:22:23;100569.91;;;24.78;100.00
9419;BME280;4748;50.802;7.132;2023-05-09T11:24:58;100567.28;;;24.65;100.00
9419;BME280;4748;50.802;7.132;2023-05-09T11:27:27;100551.66;;;24.22;100.00
9419;BME280;4748;50.802;7.132;2023-05-09T11:29:57;100552.53;;;23.87;100.00
9419;BME280;4748;50.802;7.132;2023-05-09T11:32:40;100550.25;;;24.03;100.00
9419;BME280;4748;50.802;7.132;2023-05-09T11:35:17;100542.53;;;24.26;100.00
9419;BME280;4748;50.802;7.132;2023-05-09T11:37:51;100538.72;;;24.14;100.00
9419;BME280;4748;50.802;7.132;2023-05-09T11:40:20;100534.31;;;24.26;100.00
9419;BME280;4748;50.802;7.132;2023-05-09T11:42:48;100535.16;;;24.13;100.00
9419;BME280;4748;50.802;7.132;2023-05-09T11:45:16;100516.94;;;24.31;100.00
9419;BME280;4748;50.802;7.132;2023-05-09T11:47:41;100523.41;;;24.57;100.00
9419;BME280;4748;50.802;7.132;2023-05-09T11:50:08;100512.78;;;24.55;100.00
9419;BME280;4748;50.802;7.132;2023-05-09T11:52:35;100512.84;;;24.72;100.00
9419;BME280;4748;50.802;7.132;2023-05-09T11:55:01;100509.75;;;24.65;100.00
9419;BME280;4748;50.802;7.132;2023-05-09T11:57:27;100505.28;;;24.69;100.00
9419;BME280;4748;50.802;7.132;2023-05-09T11:59:54;100497.63;;;24.96;100.00
9419;BME280;4748;50.802;7.132;2023-05-09T12:02:20;100496.06;;;25.04;100.00
9419;BME280;4748;50.802;7.132;2023-05-09T12:04:48;100488.66;;;25.04;100.00
9419;BME280;4748;50.802;7.132;2023-05-09T12:07:13;100488.63;;;24.96;100.00
9419;BME280;4748;50.802;7.132;2023-05-09T12:09:40;100490.50;;;25.25;100.00
9419;BME280;4748;50.802;7.132;2023-05-09T12:12:11;100482.38;;;25.04;100.00
9419;BME280;4748;50.802;7.132;2023-05-09T12:14:38;100479.66;;;25.20;100.00
9419;BME280;4748;50.802;7.132;2023-05-09T12:17:05;100477.09;;;25.41;100.00
9419;BME280;4748;50.802;7.132;2023-05-09T12:19:31;100470.00;;;25.31;100.00
9419;BME280;4748;50.802;7.132;2023-05-09T12:22:01;100461.16;;;25.51;100.00
9419;BME280;4748;50.802;7.132;2023-05-09T12:24:28;100473.59;;;25.66;100.00
9419;BME280;4748;50.802;7.132;2023-05-09T12:26:58;100463.09;;;25.84;100.00
9419;BME280;4748;50.802;7.132;2023-05-09T12:29:24;100450.19;;;25.85;100.00
9419;BME280;4748;50.802;7.132;2023-05-09T12:31:58;100467.28;;;25.90;100.00
9419;BME280;4748;50.802;7.132;2023-05-09T12:34:24;100454.72;;;25.89;100.00
9419;BME280;4748;50.802;7.132;2023-05-09T12:36:49;100449.84;;;25.95;100.00
9419;BME280;4748;50.802;7.132;2023-05-09T12:39:19;100444.41;;;25.78;91.66
9419;BME280;4748;50.802;7.132;2023-05-09T12:41:49;100442.47;;;25.78;100.00
9419;BME280;4748;50.802;7.132;2023-05-09T12:44:23;100436.47;;;25.60;92.71
9419;BME280;4748;50.802;7.132;2023-05-09T12:47:03;100435.66;;;25.84;93.74
9419;BME280;4748;50.802;7.132;2023-05-09T12:49:30;100441.47;;;25.74;99.03
9419;BME280;4748;50.802;7.132;2023-05-09T12:51:57;100429.41;;;25.67;97.66
9419;BME280;4748;50.802;7.132;2023-05-09T12:54:26;100425.13;;;25.95;100.00
9419;BME280;4748;50.802;7.132;2023-05-09T12:56:53;100426.94;;;25.99;99.70
9419;BME280;4748;50.802;7.132;2023-05-09T12:59:22;100414.03;;;25.83;100.00
9419;BME280;4748;50.802;7.132;2023-05-09T13:01:55;100416.22;;;26.06;96.64
9419;BME280;4748;50.802;7.132;2023-05-09T13:04:21;100407.97;;;26.15;100.00
9419;BME280;4748;50.802;7.132;2023-05-09T13:06:52;100409.81;;;26.02;96.66
9419;BME280;4748;50.802;7.132;2023-05-09T13:09:19;100406.41;;;25.97;98.77
9419;BME280;4748;50.802;7.132;2023-05-09T13:11:45;100398.50;;;26.04;99.07
9419;BME280;4748;50.802;7.132;2023-05-09T13:14:11;100398.66;;;25.99;98.47
9419;BME280;4748;50.802;7.132;2023-05-09T13:16:37;100394.78;;;26.00;98.77
9419;BME280;4748;50.802;7.132;2023-05-09T13:19:02;100390.56;;;26.11;96.91